createdAt,value
2022-11-29T00:01:41.245Z,10.93
2022-11-29T00:04:09.328Z,10.13
2022-11-29T00:06:37.440Z,9.17
2022-11-29T00:09:09.351Z,9.77
2022-11-29T00:11:58.209Z,8.87
2022-11-29T00:14:27.870Z,8.87
2022-11-29T00:17:03.261Z,9.37
2022-11-29T00:19:35.527Z,9.53
2022-11-29T00:22:04.591Z,9.23
2022-11-29T00:24:33.008Z,8.73
2022-11-29T00:27:01.193Z,8.27
2022-11-29T00:29:30.106Z,7.20
2022-11-29T00:31:57.555Z,12.10
2022-11-29T00:34:25.127Z,8.50
2022-11-29T00:36:52.714Z,8.60
2022-11-29T00:39:20.385Z,8.87
2022-11-29T00:41:47.902Z,7.47
2022-11-29T00:44:19.917Z,7.20
2022-11-29T00:46:48.849Z,7.13
2022-11-29T00:49:16.574Z,9.00
2022-11-29T00:51:44.151Z,10.60
2022-11-29T00:54:11.762Z,9.03
2022-11-29T00:56:39.342Z,8.03
2022-11-29T00:59:06.861Z,8.37
2022-11-29T01:01:34.379Z,8.20
2022-11-29T01:04:03.155Z,9.83
2022-11-29T01:06:30.611Z,9.23
2022-11-29T01:08:58.265Z,7.57
2022-11-29T01:11:28.496Z,9.00
2022-11-29T01:13:59.518Z,9.97
2022-11-29T01:16:30.146Z,7.67
2022-11-29T01:18:57.889Z,7.80
2022-11-29T01:21:26.057Z,8.07
2022-11-29T01:23:54.573Z,8.23
2022-11-29T01:26:26.597Z,8.30
2022-11-29T01:28:56.850Z,8.33
2022-11-29T01:31:32.468Z,7.80
2022-11-29T01:34:03.889Z,8.10
2022-11-29T01:36:31.597Z,8.57
2022-11-29T01:39:04.025Z,8.23
2022-11-29T01:41:36.748Z,10.00
2022-11-29T01:44:28.505Z,9.57
2022-11-29T01:46:57.914Z,9.27
2022-11-29T01:49:37.589Z,9.57
2022-11-29T01:52:24.410Z,10.07
2022-11-29T01:54:57.821Z,10.13
2022-11-29T01:57:26.857Z,9.63
2022-11-29T02:00:07.503Z,10.53
2022-11-29T02:03:11.790Z,11.63
2022-11-29T02:05:48.137Z,11.77
2022-11-29T02:08:50.565Z,13.37
2022-11-29T02:11:45.904Z,14.33
2022-11-29T02:14:27.302Z,14.13
2022-11-29T02:17:37.606Z,15.13
2022-11-29T02:20:58.804Z,16.40
2022-11-29T02:24:11.743Z,14.10
2022-11-29T02:27:37.007Z,15.07
2022-11-29T02:30:44.472Z,16.37
2022-11-29T02:37:28.551Z,15.60
2022-11-29T02:40:13.907Z,15.60
2022-11-29T02:43:18.815Z,15.83
2022-11-29T02:46:17.162Z,12.47
2022-11-29T02:49:40.864Z,14.50
2022-11-29T02:52:46.727Z,11.97
2022-11-29T02:55:36.369Z,12.43
2022-11-29T02:58:36.331Z,11.20
2022-11-29T03:04:29.018Z,11.83
2022-11-29T03:07:09.773Z,10.03
2022-11-29T03:10:04.541Z,10.53
2022-11-29T03:12:41.282Z,10.33
2022-11-29T03:15:14.917Z,12.33
2022-11-29T03:18:20.192Z,9.73
2022-11-29T03:21:16.880Z,10.60
2022-11-29T03:23:50.399Z,10.43
2022-11-29T03:26:40.359Z,11.57
2022-11-29T03:29:38.289Z,9.50
2022-11-29T03:33:08.808Z,11.50
2022-11-29T03:36:07.071Z,11.20
2022-11-29T03:38:45.113Z,13.73
2022-11-29T03:41:41.517Z,13.40
2022-11-29T03:44:27.530Z,10.33
2022-11-29T03:47:15.042Z,11.33
2022-11-29T03:50:07.063Z,12.57
2022-11-29T03:53:04.013Z,10.13
2022-11-29T03:55:46.322Z,12.60
2022-11-29T03:58:34.828Z,12.43
2022-11-29T04:01:22.470Z,10.60
2022-11-29T04:04:36.974Z,11.57
2022-11-29T04:07:34.741Z,12.27
2022-11-29T04:10:48.586Z,10.53
2022-11-29T04:13:47.070Z,11.20
2022-11-29T04:16:45.245Z,10.10
2022-11-29T04:19:59.010Z,12.23
2022-11-29T04:22:32.104Z,14.30
2022-11-29T04:25:47.578Z,12.07
2022-11-29T04:28:52.706Z,13.17
2022-11-29T04:31:53.380Z,13.60
2022-11-29T04:34:32.712Z,14.80
2022-11-29T04:37:13.802Z,14.23
2022-11-29T04:40:22.641Z,14.17
2022-11-29T04:42:59.423Z,17.13
2022-11-29T04:45:59.369Z,15.47
2022-11-29T04:49:05.778Z,16.70
2022-11-29T04:51:53.669Z,16.07
2022-11-29T04:55:23.820Z,17.43
2022-11-29T04:58:10.294Z,23.67
2022-11-29T05:01:12.324Z,24.20
2022-11-29T05:04:01.716Z,21.50
2022-11-29T05:07:08.237Z,22.97
2022-11-29T05:09:59.664Z,22.37
2022-11-29T05:13:03.850Z,24.43
2022-11-29T05:16:00.831Z,19.17
2022-11-29T05:19:17.361Z,20.40
2022-11-29T05:22:12.543Z,21.97
2022-11-29T05:25:37.023Z,23.50
2022-11-29T05:28:20.532Z,25.20
2022-11-29T05:31:32.416Z,34.87
2022-11-29T05:34:20.626Z,27.77
2022-11-29T05:37:02.871Z,23.90
2022-11-29T05:39:57.689Z,24.10
2022-11-29T05:43:01.409Z,26.23
2022-11-29T05:45:59.861Z,24.47
2022-11-29T05:48:54.069Z,21.57
2022-11-29T05:52:00.801Z,24.83
2022-11-29T05:54:41.086Z,25.57
2022-11-29T05:57:47.431Z,26.27
2022-11-29T06:00:17.424Z,22.30
2022-11-29T06:03:24.315Z,23.60
2022-11-29T06:06:08.234Z,24.83
2022-11-29T06:09:16.281Z,25.50
2022-11-29T06:11:50.930Z,29.50
2022-11-29T06:15:02.758Z,28.63
2022-11-29T06:18:25.879Z,26.57
2022-11-29T06:21:26.411Z,27.03
2022-11-29T06:23:59.254Z,28.77
2022-11-29T06:26:56.144Z,29.87
2022-11-29T06:29:35.200Z,30.40
2022-11-29T06:32:26.933Z,29.93
2022-11-29T06:35:12.014Z,26.63
2022-11-29T06:37:46.277Z,25.53
2022-11-29T06:40:16.719Z,26.10
2022-11-29T06:42:44.868Z,27.03
2022-11-29T06:45:15.963Z,28.73
2022-11-29T06:47:52.882Z,29.13
2022-11-29T06:50:38.545Z,27.13
2022-11-29T06:53:55.445Z,30.77
2022-11-29T06:57:04.043Z,30.17
2022-11-29T06:59:40.234Z,30.17
2022-11-29T07:02:55.571Z,28.87
2022-11-29T07:05:32.730Z,34.70
2022-11-29T07:08:14.879Z,30.10
2022-11-29T07:10:44.381Z,28.13
2022-11-29T07:13:16.405Z,25.27
2022-11-29T07:16:28.686Z,29.47
2022-11-29T07:19:27.581Z,28.70
2022-11-29T07:31:54.877Z,24.03
2022-11-29T07:34:33.990Z,22.17
2022-11-29T07:37:37.799Z,25.50
2022-11-29T07:40:23.046Z,28.23
2022-11-29T07:43:34.577Z,40.70
2022-11-29T07:46:02.547Z,49.90
2022-11-29T07:48:30.118Z,57.63
2022-11-29T07:50:58.019Z,44.60
2022-11-29T07:53:25.750Z,60.53
2022-11-29T07:55:53.342Z,36.50
2022-11-29T07:58:21.199Z,40.60
2022-11-29T08:00:48.709Z,37.30
2022-11-29T08:03:16.231Z,32.37
2022-11-29T08:05:47.696Z,56.77
2022-11-29T08:08:16.159Z,30.63
2022-11-29T08:10:46.050Z,27.83
2022-11-29T08:13:14.613Z,27.33
2022-11-29T08:15:49.478Z,27.90
2022-11-29T08:18:17.671Z,29.23
2022-11-29T08:20:46.331Z,25.90
2022-11-29T08:23:14.748Z,29.00
2022-11-29T08:25:42.643Z,24.57
2022-11-29T08:28:10.696Z,27.17
2022-11-29T08:30:39.146Z,21.90
2022-11-29T08:33:07.191Z,22.80
2022-11-29T08:35:37.019Z,21.70
2022-11-29T08:38:05.067Z,27.53
2022-11-29T08:40:32.803Z,29.20
2022-11-29T08:43:00.348Z,27.47
2022-11-29T08:45:27.929Z,23.40
2022-11-29T08:47:55.746Z,21.93
2022-11-29T08:50:23.400Z,21.73
2022-11-29T08:53:09.791Z,20.17
2022-11-29T08:55:42.936Z,26.10
2022-11-29T08:58:14.669Z,42.27
2022-11-29T09:00:46.426Z,25.33
2022-11-29T09:03:32.587Z,17.13
2022-11-29T09:06:12.642Z,16.73
2022-11-29T09:08:43.789Z,18.67
2022-11-29T09:11:22.502Z,16.97
2022-11-29T09:13:54.008Z,17.63
2022-11-29T09:16:25.724Z,13.83
2022-11-29T09:18:56.386Z,24.83
2022-11-29T09:21:29.441Z,25.53
2022-11-29T09:24:02.547Z,17.03
2022-11-29T09:26:34.321Z,18.80
2022-11-29T09:29:05.051Z,16.07
2022-11-29T09:31:33.498Z,16.47
2022-11-29T09:34:01.312Z,17.40
2022-11-29T09:36:31.419Z,17.67
2022-11-29T09:39:02.675Z,16.47
2022-11-29T09:42:22.413Z,16.50
2022-11-29T09:45:12.371Z,15.27
2022-11-29T09:48:09.528Z,15.20
2022-11-29T09:51:03.573Z,15.63
2022-11-29T09:54:16.535Z,14.93
2022-11-29T09:56:55.778Z,13.40
2022-11-29T09:59:52.357Z,14.10
2022-11-29T10:02:47.904Z,12.67
2022-11-29T10:05:28.823Z,10.80
2022-11-29T10:08:15.908Z,16.50
2022-11-29T10:10:49.908Z,17.53
2022-11-29T10:13:33.009Z,16.43
2022-11-29T10:16:30.131Z,15.23
2022-11-29T10:19:15.622Z,17.43
2022-11-29T10:22:00.859Z,16.87
2022-11-29T10:24:30.399Z,11.93
2022-11-29T10:26:59.150Z,11.70
2022-11-29T10:29:27.265Z,13.23
2022-11-29T10:31:56.856Z,14.10
2022-11-29T10:34:26.895Z,14.20
2022-11-29T10:37:02.720Z,14.87
2022-11-29T10:39:39.858Z,14.33
2022-11-29T10:42:40.267Z,8.80
2022-11-29T10:45:35.663Z,9.73
2022-11-29T10:48:10.144Z,12.50
2022-11-29T10:50:38.685Z,12.33
2022-11-29T10:53:20.988Z,20.27
2022-11-29T10:56:00.943Z,28.13
2022-11-29T10:58:30.805Z,29.43
2022-11-29T11:01:01.259Z,21.17
2022-11-29T11:03:53.154Z,33.03
2022-11-29T11:06:23.793Z,25.70
2022-11-29T11:09:16.072Z,11.13
2022-11-29T11:11:59.600Z,24.13
2022-11-29T11:14:38.856Z,20.53
2022-11-29T11:17:30.267Z,18.83
2022-11-29T11:20:23.129Z,20.90
2022-11-29T11:23:20.183Z,21.50
2022-11-29T11:25:50.719Z,28.93
2022-11-29T11:28:31.452Z,18.37
2022-11-29T11:31:11.250Z,15.97
2022-11-29T11:33:46.613Z,22.40
2022-11-29T11:36:24.275Z,9.03
2022-11-29T11:39:12.597Z,13.40
2022-11-29T11:42:02.182Z,8.90
2022-11-29T11:44:49.317Z,9.03
2022-11-29T11:47:22.132Z,19.93
2022-11-29T11:50:02.622Z,12.93
2022-11-29T11:52:40.702Z,33.97
2022-11-29T11:55:38.080Z,22.43
2022-11-29T11:58:48.091Z,16.33
2022-11-29T12:01:38.613Z,10.70
2022-11-29T12:04:22.734Z,10.97
2022-11-29T12:07:01.308Z,12.07
2022-11-29T12:09:40.952Z,13.97
2022-11-29T12:12:43.694Z,6.37
2022-11-29T12:15:36.197Z,14.00
2022-11-29T12:18:16.564Z,9.47
2022-11-29T12:21:17.579Z,15.60
2022-11-29T12:24:18.833Z,10.57
2022-11-29T12:26:56.903Z,8.50
2022-11-29T12:29:30.078Z,9.70
2022-11-29T12:32:00.170Z,7.97
2022-11-29T12:34:52.510Z,7.53
2022-11-29T12:37:35.999Z,7.37
2022-11-29T12:40:26.853Z,8.53
2022-11-29T12:43:27.172Z,13.03
2022-11-29T12:46:15.288Z,11.03
2022-11-29T12:49:09.849Z,16.70
2022-11-29T12:52:07.270Z,20.40
2022-11-29T12:54:41.511Z,10.13
2022-11-29T12:57:39.185Z,9.50
2022-11-29T13:00:17.205Z,12.23
2022-11-29T13:03:06.756Z,13.47
2022-11-29T13:05:41.531Z,18.67
2022-11-29T13:08:36.357Z,24.00
2022-11-29T13:11:09.180Z,18.60
2022-11-29T13:14:45.391Z,17.33
2022-11-29T13:17:54.455Z,16.27
2022-11-29T13:20:42.909Z,22.07
2022-11-29T13:23:16.080Z,36.47
2022-11-29T13:25:50.768Z,25.27
2022-11-29T13:28:30.418Z,17.30
2022-11-29T13:31:07.785Z,16.93
2022-11-29T13:33:59.113Z,9.90
2022-11-29T13:37:07.619Z,8.87
2022-11-29T13:40:01.586Z,11.53
2022-11-29T13:42:47.059Z,10.43
2022-11-29T13:46:01.704Z,8.60
2022-11-29T13:48:29.126Z,8.27
2022-11-29T13:51:24.360Z,8.10
2022-11-29T13:53:53.663Z,7.50
2022-11-29T13:56:46.591Z,9.50
2022-11-29T13:59:28.438Z,8.27
2022-11-29T14:01:58.475Z,6.63
2022-11-29T14:04:39.160Z,5.07
2022-11-29T14:07:19.577Z,6.63
2022-11-29T14:10:07.440Z,8.50
2022-11-29T14:12:53.589Z,9.57
2022-11-29T14:15:28.402Z,12.53
2022-11-29T14:18:02.421Z,10.93
2022-11-29T14:20:29.856Z,14.07
2022-11-29T14:23:06.424Z,7.50
2022-11-29T14:25:56.169Z,6.63
2022-11-29T14:28:23.638Z,8.87
2022-11-29T14:30:57.193Z,9.37
2022-11-29T14:33:46.194Z,6.30
2022-11-29T14:36:20.443Z,7.30
2022-11-29T14:39:28.369Z,9.27
2022-11-29T14:42:19.788Z,8.47
2022-11-29T14:45:04.844Z,15.17
2022-11-29T14:47:37.396Z,11.03
2022-11-29T14:50:24.456Z,9.47
2022-11-29T14:52:55.219Z,9.90
2022-11-29T14:55:38.720Z,8.40
2022-11-29T14:58:20.474Z,19.97
2022-11-29T15:00:56.459Z,9.50
2022-11-29T15:03:37.104Z,10.33
2022-11-29T15:06:18.393Z,32.27
2022-11-29T15:09:19.347Z,24.93
2022-11-29T15:12:24.684Z,13.80
2022-11-29T15:15:26.313Z,15.37
2022-11-29T15:18:55.886Z,20.17
2022-11-29T15:21:56.925Z,16.07
2022-11-29T15:24:28.716Z,32.07
2022-11-29T15:27:03.950Z,39.23
2022-11-29T15:29:32.174Z,23.07
2022-11-29T15:32:06.070Z,35.43
2022-11-29T15:34:41.252Z,29.80
2022-11-29T15:37:34.393Z,32.13
2022-11-29T15:40:12.642Z,84.10
2022-11-29T15:42:55.129Z,91.20
2022-11-29T15:45:33.457Z,99.30
2022-11-29T15:48:20.723Z,55.83
2022-11-29T15:51:37.098Z,43.97
2022-11-29T15:54:53.293Z,43.63
2022-11-29T15:57:48.728Z,17.20
2022-11-29T16:00:23.209Z,16.23
2022-11-29T16:03:28.387Z,201.63
2022-11-29T16:06:34.699Z,138.43
2022-11-29T16:09:04.540Z,366.53
2022-11-29T16:11:35.051Z,344.80
2022-11-29T16:14:14.824Z,74.97
2022-11-29T16:16:46.793Z,105.87
2022-11-29T16:19:29.867Z,341.03
2022-11-29T16:22:17.655Z,278.27
2022-11-29T16:24:57.591Z,79.90
2022-11-29T16:27:31.915Z,52.30
2022-11-29T16:30:08.028Z,149.13
2022-11-29T16:32:42.464Z,89.97
2022-11-29T16:35:34.669Z,97.37
2022-11-29T16:38:07.597Z,166.47
2022-11-29T16:40:39.228Z,94.00
2022-11-29T16:43:27.135Z,326.30
2022-11-29T16:46:26.770Z,471.43
2022-11-29T16:49:00.154Z,98.57
2022-11-29T16:51:40.134Z,95.47
2022-11-29T16:54:34.404Z,411.67
2022-11-29T16:57:06.276Z,238.67
2022-11-29T16:59:42.969Z,276.17
2022-11-29T17:02:17.600Z,85.23
2022-11-29T17:04:48.061Z,80.73
2022-11-29T17:07:33.367Z,80.60
2022-11-29T17:10:04.503Z,105.23
2022-11-29T17:12:32.188Z,119.17
2022-11-29T17:15:00.922Z,143.53
2022-11-29T17:17:29.965Z,146.80
2022-11-29T17:19:59.466Z,341.83
2022-11-29T17:22:29.271Z,233.57
2022-11-29T17:24:58.262Z,119.97
2022-11-29T17:27:25.849Z,59.03
2022-11-29T17:29:53.298Z,158.80
2022-11-29T17:32:26.527Z,160.50
2022-11-29T17:34:54.711Z,57.93
2022-11-29T17:37:23.456Z,57.73
2022-11-29T17:39:52.185Z,47.30
2022-11-29T17:42:21.687Z,46.40
2022-11-29T17:45:09.883Z,45.17
2022-11-29T17:47:38.338Z,48.93
2022-11-29T17:50:06.790Z,29.60
2022-11-29T17:52:35.590Z,33.00
2022-11-29T17:55:06.714Z,36.57
2022-11-29T17:57:34.299Z,40.57
2022-11-29T18:00:06.239Z,27.27
2022-11-29T18:02:35.085Z,27.50
2022-11-29T18:05:02.699Z,30.83
2022-11-29T18:07:33.388Z,46.17
2022-11-29T18:10:02.532Z,45.47
2022-11-29T18:12:31.190Z,20.83
2022-11-29T18:15:08.806Z,45.87
2022-11-29T18:17:36.452Z,34.93
2022-11-29T18:20:05.532Z,40.23
2022-11-29T18:22:35.151Z,38.10
2022-11-29T18:25:36.804Z,37.83
2022-11-29T18:28:02.010Z,43.83
2022-11-29T18:30:30.205Z,19.67
2022-11-29T18:32:58.203Z,25.20
2022-11-29T18:35:30.373Z,25.53
2022-11-29T18:38:15.149Z,28.27
2022-11-29T18:40:50.093Z,23.77
2022-11-29T18:43:26.318Z,21.83
2022-11-29T18:45:57.381Z,24.10
2022-11-29T18:48:34.170Z,19.50
2022-11-29T18:51:17.368Z,26.77
2022-11-29T18:53:45.898Z,23.97
2022-11-29T18:56:18.995Z,23.00
2022-11-29T18:59:23.251Z,18.27
2022-11-29T19:01:53.520Z,19.83
2022-11-29T19:04:25.341Z,20.97
2022-11-29T19:06:54.437Z,20.73
2022-11-29T19:09:23.655Z,23.43
2022-11-29T19:11:55.457Z,21.67
2022-11-29T19:14:23.634Z,23.80
2022-11-29T19:16:51.432Z,27.03
2022-11-29T19:19:19.272Z,24.30
2022-11-29T19:21:49.255Z,28.27
2022-11-29T19:24:18.908Z,29.53
2022-11-29T19:26:49.843Z,30.13
2022-11-29T19:29:18.167Z,32.57
2022-11-29T19:31:48.585Z,27.27
2022-11-29T19:34:17.146Z,27.33
2022-11-29T19:36:47.063Z,27.30
2022-11-29T19:39:17.755Z,29.27
2022-11-29T19:41:48.461Z,34.63
2022-11-29T19:44:16.519Z,36.37
2022-11-29T19:46:53.630Z,46.93
2022-11-29T19:49:21.562Z,39.53
2022-11-29T19:51:50.307Z,37.37
2022-11-29T19:54:18.705Z,33.50
2022-11-29T19:56:46.542Z,35.53
2022-11-29T19:59:16.190Z,34.43
2022-11-29T20:01:43.979Z,26.20
2022-11-29T20:04:13.822Z,27.40
2022-11-29T20:06:42.695Z,28.03
2022-11-29T20:09:12.103Z,27.20
2022-11-29T20:11:41.047Z,21.03
2022-11-29T20:14:10.989Z,22.27
2022-11-29T20:16:39.325Z,42.23
2022-11-29T20:19:17.000Z,22.77
2022-11-29T20:21:49.003Z,19.80
2022-11-29T20:24:18.105Z,19.30
2022-11-29T20:26:48.323Z,19.23
2022-11-29T20:29:17.015Z,23.00
2022-11-29T20:31:50.656Z,18.20
2022-11-29T20:34:20.442Z,20.30
2022-11-29T20:37:21.369Z,26.33
2022-11-29T20:40:03.343Z,25.57
2022-11-29T20:43:19.533Z,18.57
2022-11-29T20:45:47.647Z,19.83
2022-11-29T20:48:22.075Z,17.93
2022-11-29T20:50:59.640Z,23.73
2022-11-29T20:53:33.723Z,41.53
2022-11-29T20:56:02.512Z,24.17
2022-11-29T20:58:30.545Z,15.17
2022-11-29T21:00:58.739Z,13.70
2022-11-29T21:03:28.028Z,14.37
2022-11-29T21:05:56.949Z,14.37
2022-11-29T21:08:27.013Z,13.40
2022-11-29T21:10:55.122Z,12.43
2022-11-29T21:13:24.252Z,14.00
2022-11-29T21:15:56.637Z,14.03
2022-11-29T21:18:29.596Z,14.83
2022-11-29T21:21:41.753Z,15.10
2022-11-29T21:24:42.536Z,14.10
2022-11-29T21:27:18.043Z,15.23
2022-11-29T21:29:48.558Z,16.63
2022-11-29T21:32:25.886Z,17.43
2022-11-29T21:34:53.899Z,19.43
2022-11-29T21:37:27.544Z,18.33
2022-11-29T21:39:56.172Z,18.47
2022-11-29T21:42:24.210Z,17.60
2022-11-29T21:44:51.647Z,18.60
2022-11-29T21:47:19.093Z,18.50
2022-11-29T21:49:46.896Z,19.53
2022-11-29T21:52:20.707Z,17.60
2022-11-29T21:54:50.118Z,19.80
2022-11-29T21:57:17.600Z,20.37
2022-11-29T21:59:45.839Z,18.70
2022-11-29T22:02:13.628Z,21.50
2022-11-29T22:04:41.118Z,19.70
2022-11-29T22:07:09.843Z,21.90
2022-11-29T22:09:37.499Z,20.80
2022-11-29T22:12:25.773Z,20.23
2022-11-29T22:14:52.867Z,20.03
2022-11-29T22:17:20.265Z,20.83
2022-11-29T22:19:47.855Z,20.70
2022-11-29T22:22:15.379Z,20.90
2022-11-29T22:24:43.114Z,20.73
2022-11-29T22:27:10.540Z,18.83
2022-11-29T22:29:38.077Z,17.90
2022-11-29T22:32:06.249Z,19.67
2022-11-29T22:34:33.753Z,16.80
2022-11-29T22:37:01.288Z,15.40
2022-11-29T22:39:28.725Z,16.63
2022-11-29T22:41:56.213Z,17.57
2022-11-29T22:44:24.815Z,18.70
2022-11-29T22:46:52.605Z,19.50
2022-11-29T22:49:20.499Z,17.43
2022-11-29T22:51:48.061Z,18.07
2022-11-29T22:54:16.593Z,16.10
2022-11-29T22:56:45.731Z,17.23
2022-11-29T22:59:13.664Z,17.83
2022-11-29T23:01:43.014Z,16.47
2022-11-29T23:04:12.401Z,13.80
2022-11-29T23:06:45.831Z,14.63
2022-11-29T23:09:21.736Z,19.03
2022-11-29T23:11:55.850Z,18.03
2022-11-29T23:14:23.950Z,15.50
2022-11-29T23:16:52.002Z,16.93
2022-11-29T23:19:20.151Z,17.43
2022-11-29T23:21:47.969Z,17.07
2022-11-29T23:24:16.391Z,15.20
2022-11-29T23:26:46.995Z,15.43
2022-11-29T23:29:18.593Z,14.00
2022-11-29T23:31:46.946Z,13.93
2022-11-29T23:34:15.348Z,16.40
2022-11-29T23:36:46.887Z,14.03
2022-11-29T23:39:17.248Z,15.67
2022-11-29T23:41:44.770Z,14.30
2022-11-29T23:44:12.488Z,13.97
2022-11-29T23:46:39.983Z,14.73
2022-11-29T23:49:07.488Z,14.80
2022-11-29T23:51:34.977Z,14.93
2022-11-29T23:54:02.561Z,12.93
2022-11-29T23:56:35.160Z,16.30
2022-11-29T23:59:03.081Z,15.07
